Time;durP1;ratioP1;P1;durP2;ratioP2;P2;SDS_P1;SDS_P2;PMS_P1;PMS_P2;Temp;Humidity;BMP_temperature;BMP_pressure;BME280_temperature;BME280_humidity;BME280_pressure;Samples;Min_cycle;Max_cycle;Signal;HPM_P1;HPM_P2
2022/06/15 00:00:59;;;;;;;32.03;11.82;;;11.50;99.90;;;;;;5036558;28;20045;-76
2022/06/15 00:03:28;;;;;;;24.30;10.43;;;11.50;99.90;;;;;;5054162;28;20377;-76
2022/06/15 00:06:06;;;;;;;24.27;10.38;;;11.50;99.90;;;;;;5037248;28;20484;-76
2022/06/15 00:08:32;;;;;;;20.98;10.10;;;11.40;99.90;;;;;;5036637;28;20076;-76
2022/06/15 00:11:04;;;;;;;27.48;11.20;;;11.40;99.90;;;;;;5036547;28;20477;-76
2022/06/15 00:13:30;;;;;;;24.52;11.18;;;11.40;99.90;;;;;;5036399;28;20037;-76
2022/06/15 00:15:56;;;;;;;25.33;11.32;;;11.40;99.90;;;;;;5054097;28;20041;-76
2022/06/15 00:18:21;;;;;;;23.48;9.75;;;11.30;99.90;;;;;;5054090;28;20178;-76
2022/06/15 00:20:47;;;;;;;23.02;10.10;;;11.30;99.90;;;;;;5036378;28;20053;-76
2022/06/15 00:23:12;;;;;;;23.02;10.88;;;11.20;99.90;;;;;;5053950;28;20084;-76
2022/06/15 00:25:38;;;;;;;23.80;10.95;;;11.20;99.90;;;;;;5053853;28;20114;-76
2022/06/15 00:28:04;;;;;;;28.40;10.75;;;11.20;99.90;;;;;;5036081;28;20041;-76
2022/06/15 00:30:29;;;;;;;29.73;11.60;;;11.20;99.90;;;;;;5036056;28;20037;-76
2022/06/15 00:32:55;;;;;;;29.63;11.95;;;11.20;99.90;;;;;;5053750;28;20049;-76
2022/06/15 00:35:21;;;;;;;22.55;11.38;;;11.10;99.90;;;;;;5036140;28;20037;-76
2022/06/15 00:37:46;;;;;;;21.95;11.10;;;11.10;99.90;;;;;;5053658;28;20111;-76
2022/06/15 00:40:13;;;;;;;27.30;12.00;;;11.00;99.90;;;;;;5035947;28;20049;-76
2022/06/15 00:42:38;;;;;;;30.38;12.05;;;11.00;99.90;;;;;;5035593;28;20049;-76
2022/06/15 00:45:05;;;;;;;30.95;12.77;;;11.00;99.90;;;;;;5053642;28;20124;-76
2022/06/15 00:47:35;;;;;;;25.80;12.05;;;11.00;99.90;;;;;;5035632;28;20106;-76
2022/06/15 00:50:09;;;;;;;23.58;11.52;;;11.00;99.90;;;;;;5053687;28;20133;-76
2022/06/15 00:52:43;;;;;;;30.38;13.30;;;11.00;99.90;;;;;;5035842;28;20491;-76
2022/06/15 00:55:30;;;;;;;30.73;12.60;;;11.00;99.90;;;;;;5053648;28;20051;-76
2022/06/15 00:57:57;;;;;;;32.03;13.00;;;11.00;99.90;;;;;;5035788;28;20040;-76
2022/06/15 01:00:23;;;;;;;38.80;14.55;;;11.00;99.90;;;;;;5035636;28;20060;-76
2022/06/15 01:02:49;;;;;;;34.20;15.32;;;11.00;99.90;;;;;;5053398;28;20068;-76
2022/06/15 01:05:19;;;;;;;35.67;17.52;;;11.00;99.90;;;;;;5053413;28;20389;-76
2022/06/15 01:08:03;;;;;;;35.00;16.63;;;11.00;99.90;;;;;;5053549;28;20123;-76
2022/06/15 01:10:35;;;;;;;41.22;16.83;;;11.00;99.90;;;;;;5035354;28;20124;-76
2022/06/15 01:13:12;;;;;;;34.28;15.35;;;11.10;99.90;;;;;;5053707;28;20037;-76
2022/06/15 01:15:50;;;;;;;32.53;14.68;;;11.10;99.90;;;;;;5053482;28;20075;-76
2022/06/15 01:18:21;;;;;;;36.20;14.65;;;11.00;99.90;;;;;;5035501;28;20045;-76
2022/06/15 01:20:54;;;;;;;28.70;14.38;;;11.00;99.90;;;;;;5035552;28;20057;-76
2022/06/15 01:23:38;;;;;;;33.85;15.30;;;11.10;99.90;;;;;;5035349;28;20049;-76
2022/06/15 01:26:17;;;;;;;28.65;14.85;;;11.00;99.90;;;;;;5035406;28;20037;-76
2022/06/15 01:28:57;;;;;;;36.85;15.40;;;11.00;99.90;;;;;;5035667;28;20492;-76
2022/06/15 01:31:25;;;;;;;29.02;13.60;;;10.90;99.90;;;;;;5036380;28;20489;-76
2022/06/15 01:34:13;;;;;;;33.28;14.30;;;11.00;99.90;;;;;;5053280;28;20037;-76
2022/06/15 01:36:48;;;;;;;39.78;16.13;;;10.90;99.90;;;;;;5053165;28;20542;-76
2022/06/15 01:39:25;;;;;;;29.02;14.52;;;10.90;99.90;;;;;;5053108;28;20044;-76
2022/06/15 01:42:11;;;;;;;30.55;13.00;;;10.80;99.90;;;;;;5053122;28;20048;-76
2022/06/15 01:45:04;;;;;;;31.85;15.02;;;10.80;99.90;;;;;;5052469;28;20059;-76
2022/06/15 01:47:33;;;;;;;32.08;14.70;;;10.70;99.90;;;;;;5035289;28;20041;-76
2022/06/15 01:50:02;;;;;;;34.67;13.45;;;10.80;99.90;;;;;;5035314;28;20053;-76
2022/06/15 01:52:32;;;;;;;31.73;14.52;;;10.70;99.90;;;;;;5037376;28;20123;-76
2022/06/15 01:55:16;;;;;;;32.08;15.07;;;10.60;99.90;;;;;;5057038;28;20392;-76
2022/06/15 01:57:45;;;;;;;39.95;14.13;;;10.60;99.90;;;;;;5056846;28;20049;-76
2022/06/15 02:00:17;;;;;;;25.20;13.23;;;10.60;99.90;;;;;;5039035;28;20480;-76
2022/06/15 02:03:10;;;;;;;33.53;13.85;;;10.60;99.90;;;;;;5056693;28;20048;-76
2022/06/15 02:05:52;;;;;;;26.15;12.70;;;10.50;99.90;;;;;;5038960;28;20049;-76
2022/06/15 02:08:35;;;;;;;30.05;13.35;;;10.50;99.90;;;;;;5038702;28;20041;-76
2022/06/15 02:11:10;;;;;;;25.23;12.57;;;10.50;99.90;;;;;;5038569;28;20048;-76
2022/06/15 02:13:54;;;;;;;31.85;12.48;;;10.50;99.90;;;;;;5056550;28;20037;-76
2022/06/15 02:16:41;;;;;;;31.17;13.68;;;10.50;99.90;;;;;;5038548;28;20045;-76
2022/06/15 02:19:10;;;;;;;31.10;12.68;;;10.50;99.90;;;;;;5056059;28;20064;-76
2022/06/15 02:21:38;;;;;;;30.25;12.73;;;10.40;99.90;;;;;;5056309;28;20045;-76
2022/06/15 02:24:05;;;;;;;32.70;13.98;;;10.40;99.90;;;;;;5038316;28;20052;-76
2022/06/15 02:26:33;;;;;;;32.42;12.93;;;10.50;99.90;;;;;;5056207;28;20178;-76
2022/06/15 02:29:08;;;;;;;32.28;13.30;;;10.40;99.90;;;;;;5038520;28;20131;-76
2022/06/15 02:31:35;;;;;;;29.13;13.40;;;10.40;99.90;;;;;;5056161;28;20045;-76
2022/06/15 02:34:03;;;;;;;35.67;16.05;;;10.40;99.90;;;;;;5037984;28;20052;-76
2022/06/15 02:36:32;;;;;;;35.60;14.25;;;10.40;99.90;;;;;;5055906;28;20439;-76
2022/06/15 02:38:58;;;;;;;37.55;14.48;;;10.50;99.90;;;;;;5056006;28;20114;-76
2022/06/15 02:41:25;;;;;;;32.13;13.85;;;10.50;99.90;;;;;;5055982;28;20052;-76
2022/06/15 02:43:54;;;;;;;29.50;14.32;;;10.60;99.90;;;;;;5055441;28;20053;-76
2022/06/15 02:46:22;;;;;;;31.42;14.55;;;10.60;99.90;;;;;;5037808;28;20102;-76
2022/06/15 02:48:48;;;;;;;29.73;12.63;;;10.70;99.90;;;;;;5055854;28;20063;-76
2022/06/15 02:51:18;;;;;;;28.33;13.13;;;10.70;99.90;;;;;;5055788;28;20045;-76
2022/06/15 02:53:46;;;;;;;34.20;14.50;;;10.80;99.90;;;;;;5055632;28;20400;-76
2022/06/15 02:56:13;;;;;;;38.75;14.73;;;10.80;99.90;;;;;;5037505;28;20091;-76
2022/06/15 02:58:43;;;;;;;37.95;15.07;;;10.90;99.90;;;;;;5037590;28;20052;-76
2022/06/15 03:01:09;;;;;;;44.85;14.02;;;11.00;99.90;;;;;;5056197;28;20045;-76
2022/06/15 03:03:36;;;;;;;34.63;13.57;;;11.00;99.90;;;;;;5037060;28;20091;-76
2022/06/15 03:06:02;;;;;;;34.00;14.32;;;11.10;99.90;;;;;;5037028;28;20037;-76
2022/06/15 03:08:27;;;;;;;32.00;14.05;;;11.30;99.90;;;;;;5054542;28;20554;-76
2022/06/15 03:10:53;;;;;;;33.20;13.32;;;11.40;99.90;;;;;;5035726;28;20045;-76
2022/06/15 03:13:20;;;;;;;35.08;13.15;;;11.50;99.90;;;;;;5037372;28;20053;-76
2022/06/15 03:15:46;;;;;;;32.50;12.93;;;11.60;99.90;;;;;;5055297;28;20036;-76
2022/06/15 03:18:12;;;;;;;31.50;12.98;;;11.60;99.90;;;;;;5055193;28;20052;-76
2022/06/15 03:20:38;;;;;;;32.03;11.60;;;11.70;99.90;;;;;;5055211;28;20037;-76
2022/06/15 03:23:06;;;;;;;26.67;11.40;;;11.80;99.90;;;;;;5054768;28;20544;-76
2022/06/15 03:25:33;;;;;;;25.92;10.65;;;11.70;99.90;;;;;;5054852;28;20092;-76
2022/06/15 03:27:59;;;;;;;27.48;10.20;;;11.80;99.90;;;;;;5037186;28;20106;-76
2022/06/15 03:30:24;;;;;;;28.75;10.93;;;11.70;99.90;;;;;;5054986;28;20045;-76
2022/06/15 03:32:50;;;;;;;22.27;9.23;;;11.70;99.90;;;;;;5036876;28;20408;-76
2022/06/15 03:35:16;;;;;;;21.02;9.07;;;11.70;99.90;;;;;;5054883;28;20033;-76
2022/06/15 03:37:42;;;;;;;23.08;9.65;;;11.70;99.90;;;;;;5054645;28;20395;-76
2022/06/15 03:40:10;;;;;;;18.40;9.05;;;11.60;99.90;;;;;;5054565;28;20080;-76
2022/06/15 03:42:39;;;;;;;24.17;10.20;;;11.60;99.90;;;;;;5054210;28;20443;-77
2022/06/15 03:45:06;;;;;;;24.48;10.52;;;11.70;99.90;;;;;;5036698;28;20053;-76
2022/06/15 03:47:32;;;;;;;20.83;9.73;;;11.70;99.90;;;;;;5036796;28;20135;-76
2022/06/15 03:49:57;;;;;;;20.75;10.02;;;11.70;99.90;;;;;;5054618;28;20457;-76
2022/06/15 03:52:27;;;;;;;23.75;9.13;;;11.60;99.90;;;;;;5036554;28;20037;-76
2022/06/15 03:54:53;;;;;;;21.65;8.70;;;11.60;99.90;;;;;;5036410;28;20055;-76
2022/06/15 03:57:20;;;;;;;21.25;9.25;;;11.60;99.90;;;;;;5036580;28;20052;-76
2022/06/15 03:59:46;;;;;;;20.25;8.23;;;11.60;99.90;;;;;;5036729;28;20040;-76
2022/06/15 04:02:12;;;;;;;19.63;7.93;;;11.60;99.90;;;;;;5036569;28;20083;-76
2022/06/15 04:04:38;;;;;;;21.63;8.27;;;11.60;99.90;;;;;;5036492;28;20507;-76
2022/06/15 04:07:05;;;;;;;28.52;9.73;;;11.60;99.90;;;;;;5054220;28;20111;-76
2022/06/15 04:09:31;;;;;;;17.08;8.73;;;11.80;99.90;;;;;;5036414;28;20045;-76
2022/06/15 04:12:02;;;;;;;19.70;8.93;;;11.90;99.90;;;;;;5036291;28;20056;-76
2022/06/15 04:14:32;;;;;;;17.83;8.70;;;12.00;99.90;;;;;;5053676;28;20087;-76
2022/06/15 04:16:58;;;;;;;21.60;9.27;;;12.10;99.90;;;;;;5036267;28;20052;-76
2022/06/15 04:19:31;;;;;;;18.60;8.25;;;12.10;99.90;;;;;;5036198;28;20492;-76
2022/06/15 04:21:57;;;;;;;20.87;8.03;;;12.30;99.90;;;;;;5035884;28;20059;-76
2022/06/15 04:24:27;;;;;;;19.90;9.13;;;12.50;99.90;;;;;;5053756;28;20045;-76
2022/06/15 04:26:53;;;;;;;21.35;8.40;;;12.60;99.90;;;;;;5053961;28;20129;-76
2022/06/15 04:29:20;;;;;;;16.45;8.20;;;12.70;99.90;;;;;;5036069;28;20473;-76
2022/06/15 04:31:47;;;;;;;14.95;7.55;;;12.90;99.90;;;;;;5053846;28;20393;-76
2022/06/15 04:34:14;;;;;;;14.77;7.57;;;13.00;99.90;;;;;;5053757;28;20052;-76
2022/06/15 04:36:41;;;;;;;16.15;7.95;;;13.20;99.90;;;;;;5053847;28;20045;-76
2022/06/15 04:39:09;;;;;;;15.68;8.07;;;13.40;99.90;;;;;;5036021;28;20053;-76
2022/06/15 04:41:38;;;;;;;16.30;8.13;;;13.40;99.90;;;;;;5036085;28;20123;-76
2022/06/15 04:44:06;;;;;;;18.50;8.10;;;13.60;99.90;;;;;;5053319;28;20057;-77
2022/06/15 04:46:33;;;;;;;19.55;7.70;;;13.70;99.90;;;;;;5053699;28;20059;-77
2022/06/15 04:49:00;;;;;;;12.60;6.60;;;13.90;99.90;;;;;;5053420;28;20048;-77
2022/06/15 04:51:27;;;;;;;15.73;7.80;;;14.00;99.90;;;;;;5035467;28;20489;-77
2022/06/15 04:53:54;;;;;;;16.40;7.68;;;14.20;99.90;;;;;;5053571;28;20045;-77
2022/06/15 04:56:21;;;;;;;17.17;7.90;;;14.30;99.90;;;;;;5053544;28;20045;-77
2022/06/15 04:58:47;;;;;;;20.52;7.50;;;14.40;99.90;;;;;;5035507;28;20044;-77
2022/06/15 05:01:14;;;;;;;19.98;7.70;;;14.60;99.90;;;;;;5053481;28;20055;-76
2022/06/15 05:03:40;;;;;;;22.63;8.38;;;14.70;99.90;;;;;;5053334;28;20076;-77
2022/06/15 05:06:13;;;;;;;22.55;8.15;;;14.90;99.90;;;;;;5035380;28;20072;-77
2022/06/15 05:08:39;;;;;;;20.52;7.57;;;14.90;99.90;;;;;;5053405;28;20149;-77
2022/06/15 05:11:05;;;;;;;17.92;7.25;;;15.10;99.90;;;;;;5053283;28;20037;-76
2022/06/15 05:13:31;;;;;;;14.18;7.45;;;15.30;99.90;;;;;;5035593;28;20052;-77
2022/06/15 05:15:56;;;;;;;20.48;8.15;;;15.30;99.90;;;;;;5035492;28;20383;-77
2022/06/15 05:18:22;;;;;;;22.27;7.85;;;15.40;99.90;;;;;;5035243;28;20049;-77
2022/06/15 05:20:48;;;;;;;19.45;8.20;;;15.60;99.90;;;;;;5035294;28;20036;-77
2022/06/15 05:23:15;;;;;;;15.38;8.07;;;15.70;99.90;;;;;;5053056;28;20428;-77
2022/06/15 05:25:42;;;;;;;19.02;8.32;;;15.80;99.90;;;;;;5053022;28;20045;-77
2022/06/15 05:28:09;;;;;;;20.33;8.65;;;15.90;99.90;;;;;;5056286;28;20079;-77
2022/06/15 05:30:36;;;;;;;24.67;8.20;;;16.10;99.90;;;;;;5057059;28;20052;-77
2022/06/15 05:33:02;;;;;;;23.08;10.70;;;16.10;99.90;;;;;;5039190;28;20052;-77
2022/06/15 05:35:29;;;;;;;24.45;10.93;;;16.20;99.90;;;;;;5057153;28;20048;-77
2022/06/15 05:37:55;;;;;;;29.20;12.13;;;16.40;99.90;;;;;;5057212;28;20119;-77
2022/06/15 05:40:21;;;;;;;20.75;11.25;;;16.50;99.90;;;;;;5039056;28;20156;-77
2022/06/15 05:42:46;;;;;;;31.73;13.00;;;16.60;99.90;;;;;;5038914;28;20057;-77
2022/06/15 05:45:12;;;;;;;28.65;13.27;;;16.70;99.90;;;;;;5057012;28;20046;-77
2022/06/15 05:47:38;;;;;;;33.05;14.45;;;16.80;99.90;;;;;;5056784;28;20052;-77
2022/06/15 05:50:06;;;;;;;29.42;13.48;;;16.90;99.90;;;;;;5056921;28;20041;-77
2022/06/15 05:52:31;;;;;;;26.40;12.35;;;17.00;99.90;;;;;;5056615;28;20052;-77
2022/06/15 05:54:58;;;;;;;24.83;11.35;;;17.00;99.90;;;;;;5056768;28;20041;-77
2022/06/15 05:57:25;;;;;;;32.53;12.07;;;17.00;99.90;;;;;;5038670;28;20048;-77
2022/06/15 05:59:54;;;;;;;26.98;12.10;;;17.00;99.90;;;;;;5056356;28;20373;-77
2022/06/15 06:02:22;;;;;;;22.98;9.48;;;17.10;99.90;;;;;;5056626;28;20168;-77
2022/06/15 06:04:48;;;;;;;22.10;8.40;;;17.10;99.90;;;;;;5056558;28;20116;-77
2022/06/15 06:07:14;;;;;;;17.08;8.48;;;17.10;99.90;;;;;;5056343;28;20048;-77
2022/06/15 06:09:40;;;;;;;15.00;6.43;;;17.10;99.90;;;;;;5038470;28;20055;-78
2022/06/15 06:12:08;;;;;;;16.67;7.13;;;17.10;99.90;;;;;;5056111;28;20404;-77
2022/06/15 06:14:33;;;;;;;17.77;7.93;;;17.30;99.90;;;;;;5056201;28;20547;-78
2022/06/15 06:16:59;;;;;;;26.50;11.77;;;17.50;99.90;;;;;;5038530;28;20124;-78
2022/06/15 06:19:25;;;;;;;34.58;13.45;;;17.60;99.90;;;;;;5066919;28;20557;-77
2022/06/15 06:21:51;;;;;;;30.98;13.82;;;17.60;99.90;;;;;;5038048;28;20099;-77
2022/06/15 06:24:16;;;;;;;34.65;14.07;;;17.60;99.90;;;;;;5055766;28;20079;-77
2022/06/15 06:26:42;;;;;;;32.67;15.57;;;17.50;99.90;;;;;;5055728;28;20400;-77
2022/06/15 06:29:13;;;;;;;34.33;14.10;;;17.50;99.90;;;;;;5055965;28;20048;-77
2022/06/15 06:31:39;;;;;;;33.17;15.20;;;17.50;99.90;;;;;;5055655;28;20088;-80
2022/06/15 06:34:05;;;;;;;34.53;15.57;;;17.50;99.90;;;;;;5037764;28;20068;-77
2022/06/15 06:36:44;;;;;;;37.47;15.10;;;17.40;99.90;;;;;;5055898;28;20037;-77
2022/06/15 06:39:16;;;;;;;40.47;15.60;;;17.40;99.90;;;;;;5055232;28;20049;-76
2022/06/15 06:41:41;;;;;;;30.63;14.32;;;17.40;99.90;;;;;;5037822;28;20041;-76
2022/06/15 06:44:08;;;;;;;37.08;17.38;;;17.30;99.90;;;;;;5037195;28;20140;-77
2022/06/15 06:46:35;;;;;;;36.70;16.92;;;17.20;99.90;;;;;;5055406;28;20467;-77
2022/06/15 06:49:02;;;;;;;38.10;16.60;;;17.20;99.90;;;;;;5037472;28;20049;-77
2022/06/15 06:51:28;;;;;;;33.33;15.35;;;17.10;99.90;;;;;;5037804;28;20048;-77
2022/06/15 06:53:54;;;;;;;36.75;17.30;;;17.20;99.90;;;;;;5055218;28;20123;-77
2022/06/15 06:56:19;;;;;;;37.78;16.23;;;17.10;99.90;;;;;;5055264;28;20131;-76
2022/06/15 06:58:45;;;;;;;42.22;16.77;;;17.10;99.90;;;;;;5037452;28;20049;-76
2022/06/15 07:01:10;;;;;;;36.03;17.00;;;17.20;99.90;;;;;;5037546;28;20049;-77
2022/06/15 07:03:36;;;;;;;33.95;18.10;;;17.20;99.90;;;;;;5037286;28;20503;-77
2022/06/15 07:06:07;;;;;;;35.92;17.95;;;17.10;99.90;;;;;;5055046;28;20128;-77
2022/06/15 07:08:33;;;;;;;38.72;18.30;;;17.30;99.90;;;;;;5037113;28;20174;-77
2022/06/15 07:10:59;;;;;;;33.17;16.30;;;17.40;99.90;;;;;;5037379;28;20102;-76
2022/06/15 07:13:25;;;;;;;36.53;17.20;;;17.60;99.90;;;;;;5054808;28;20057;-77
2022/06/15 07:15:51;;;;;;;30.33;15.70;;;18.00;99.90;;;;;;5055583;28;20033;-76
2022/06/15 07:18:18;;;;;;;28.70;15.85;;;18.20;99.90;;;;;;5062500;28;20052;-77
2022/06/15 07:20:44;;;;;;;33.70;15.73;;;18.60;99.90;;;;;;5073792;28;20510;-76
2022/06/15 07:23:10;;;;;;;35.30;14.40;;;18.60;99.90;;;;;;5073446;28;20048;-76
2022/06/15 07:25:35;;;;;;;32.63;15.32;;;18.70;99.90;;;;;;5074884;28;20130;-76
2022/06/15 07:28:03;;;;;;;35.80;15.88;;;18.80;99.90;;;;;;5075014;28;20048;-76
2022/06/15 07:30:29;;;;;;;35.40;14.90;;;18.90;99.90;;;;;;5074607;28;20044;-77
2022/06/15 07:32:55;;;;;;;36.47;14.85;;;18.80;99.90;;;;;;5073381;28;20052;-76
2022/06/15 07:35:27;;;;;;;26.98;13.23;;;19.10;99.90;;;;;;5074521;28;20044;-76
2022/06/15 07:37:54;;;;;;;31.25;13.80;;;19.30;99.90;;;;;;5073520;28;20056;-77
2022/06/15 07:40:22;;;;;;;33.15;13.85;;;19.50;99.90;;;;;;5067318;28;20037;-77
2022/06/15 07:42:48;;;;;;;30.50;13.48;;;19.20;99.90;;;;;;5072916;28;20449;-77
2022/06/15 07:45:15;;;;;;;34.30;15.23;;;19.60;99.90;;;;;;5074298;28;20487;-77
2022/06/15 07:50:26;;;;;;;30.50;14.43;;;19.10;99.90;;;;;;5053799;28;20055;-77
2022/06/15 07:52:52;;;;;;;31.25;13.45;;;19.50;99.90;;;;;;5054385;28;20049;-77
2022/06/15 07:55:28;;;;;;;35.83;13.15;;;19.50;99.90;;;;;;5036469;28;20124;-77
2022/06/15 07:57:54;;;;;;;29.48;13.75;;;19.50;99.90;;;;;;5059077;28;20121;-76
2022/06/15 08:00:21;;;;;;;25.63;13.65;;;19.80;99.90;;;;;;5073933;28;20079;-76
2022/06/15 08:02:48;;;;;;;24.75;11.00;;;19.70;99.90;;;;;;5072584;28;20053;-77
2022/06/15 08:05:14;;;;;;;27.25;12.75;;;20.00;99.90;;;;;;5073929;28;20415;-77
2022/06/15 08:07:40;;;;;;;28.35;13.38;;;20.10;99.90;;;;;;5072569;28;20098;-77
2022/06/15 08:10:06;;;;;;;27.80;12.50;;;20.10;99.90;;;;;;5072569;28;20056;-77
2022/06/15 08:12:32;;;;;;;28.08;13.00;;;19.90;99.90;;;;;;5073774;28;20066;-77
2022/06/15 08:15:00;;;;;;;27.73;12.27;;;19.50;99.90;;;;;;5072397;28;20049;-75
2022/06/15 08:17:30;;;;;;;26.92;13.02;;;19.70;99.90;;;;;;5073140;28;20056;-76
2022/06/15 08:20:05;;;;;;;28.38;12.25;;;19.90;99.90;;;;;;5073550;28;20155;-76
2022/06/15 08:22:33;;;;;;;31.63;14.07;;;20.20;99.90;;;;;;5055699;28;20040;-76
2022/06/15 08:25:01;;;;;;;26.73;13.10;;;19.90;99.90;;;;;;5055700;28;20079;-76
2022/06/15 08:27:27;;;;;;;26.77;12.05;;;19.80;99.90;;;;;;5055565;28;20055;-76
2022/06/15 08:29:52;;;;;;;27.73;12.95;;;20.30;99.90;;;;;;5055476;28;20058;-76
2022/06/15 08:32:19;;;;;;;26.55;11.90;;;20.30;99.90;;;;;;5073594;28;20530;-76
2022/06/15 08:34:45;;;;;;;28.48;11.98;;;20.30;99.90;;;;;;5055889;28;20052;-76
2022/06/15 08:37:14;;;;;;;25.85;12.10;;;20.50;99.90;;;;;;5073432;28;20049;-75
2022/06/15 08:39:40;;;;;;;30.48;12.43;;;20.40;99.90;;;;;;5046344;28;20117;-76
2022/06/15 08:42:27;;;;;;;28.50;12.05;;;20.30;99.90;;;;;;5035406;28;20098;-76
2022/06/15 08:45:02;;;;;;;29.38;13.05;;;20.40;99.90;;;;;;5033676;28;20061;-76
2022/06/15 08:47:47;;;;;;;32.13;12.52;;;20.20;99.90;;;;;;5043112;28;20076;-76
2022/06/15 08:50:34;;;;;;;25.40;12.57;;;20.50;99.90;;;;;;5043751;28;20041;-76
2022/06/15 08:53:14;;;;;;;26.55;12.43;;;20.10;99.90;;;;;;5032115;28;20042;-76
2022/06/15 08:56:14;;;;;;;24.38;11.63;;;20.20;99.90;;;;;;5033627;28;20115;-76
2022/06/15 08:59:04;;;;;;;26.73;10.43;;;20.40;99.90;;;;;;5050104;28;20119;-76
2022/06/15 09:02:05;;;;;;;28.23;11.20;;;20.10;99.90;;;;;;5041337;28;20112;-77
2022/06/15 09:04:54;;;;;;;20.63;9.80;;;20.20;99.90;;;;;;5032921;28;20064;-76
2022/06/15 09:08:06;;;;;;;23.83;11.38;;;20.50;99.90;;;;;;5031375;28;20050;-76
2022/06/15 09:11:05;;;;;;;27.23;10.73;;;20.30;99.90;;;;;;5031879;28;20052;-76
2022/06/15 09:13:40;;;;;;;24.88;10.35;;;20.40;99.90;;;;;;5032348;28;20424;-75
2022/06/15 09:16:33;;;;;;;28.63;11.75;;;20.50;99.90;;;;;;5031972;28;20089;-76
2022/06/15 09:19:02;;;;;;;25.65;11.32;;;20.50;99.90;;;;;;5033010;28;20559;-76
2022/06/15 09:21:54;;;;;;;24.42;11.60;;;20.80;99.90;;;;;;5032100;28;20064;-76
2022/06/15 09:24:26;;;;;;;28.23;12.13;;;20.80;99.90;;;;;;5033241;28;20046;-76
2022/06/15 09:26:55;;;;;;;18.13;10.02;;;20.60;99.90;;;;;;5031824;28;20053;-76
2022/06/15 09:29:45;;;;;;;19.88;10.45;;;20.90;99.90;;;;;;5031688;28;20060;-76
2022/06/15 09:32:18;;;;;;;22.88;10.02;;;20.80;99.90;;;;;;5032883;28;20539;-76
2022/06/15 09:34:54;;;;;;;24.50;10.35;;;21.00;99.90;;;;;;5031643;28;20083;-76
2022/06/15 09:37:22;;;;;;;20.13;8.85;;;21.30;99.90;;;;;;5033012;28;20524;-76
2022/06/15 09:39:48;;;;;;;18.95;9.63;;;21.10;99.90;;;;;;5033112;28;20100;-77
2022/06/15 09:42:34;;;;;;;20.92;8.43;;;21.20;99.90;;;;;;5032857;28;20045;-79
2022/06/15 09:45:21;;;;;;;14.45;8.07;;;21.30;99.90;;;;;;5033041;28;20064;-80
2022/06/15 09:48:13;;;;;;;22.67;9.55;;;21.40;99.90;;;;;;5021337;28;20461;-76
2022/06/15 09:50:55;;;;;;;18.90;9.32;;;21.30;99.90;;;;;;5031518;28;20049;-76
2022/06/15 09:53:55;;;;;;;21.55;9.20;;;21.50;99.90;;;;;;5032822;28;20473;-73
2022/06/15 09:56:23;;;;;;;16.92;8.55;;;21.60;99.90;;;;;;5031730;28;20127;-75
2022/06/15 09:59:09;;;;;;;20.70;7.82;;;21.20;99.90;;;;;;5031710;28;20045;-74
2022/06/15 10:01:42;;;;;;;18.27;8.07;;;21.10;99.90;;;;;;5032964;28;20046;-76
2022/06/15 10:04:21;;;;;;;17.58;7.78;;;21.70;99.90;;;;;;5032909;28;20091;-76
2022/06/15 10:06:55;;;;;;;20.25;7.75;;;21.80;99.90;;;;;;5032983;28;20040;-76
2022/06/15 10:09:26;;;;;;;15.88;8.10;;;21.80;99.90;;;;;;5031449;28;20073;-76
2022/06/15 10:14:50;;;;;;;19.33;8.73;;;21.90;99.90;;;;;;5036472;28;20048;-76
2022/06/15 10:17:30;;;;;;;16.60;7.97;;;21.50;99.90;;;;;;5034980;28;20555;-76
2022/06/15 10:19:57;;;;;;;21.98;9.40;;;21.80;99.90;;;;;;5034845;28;20088;-74
2022/06/15 10:22:41;;;;;;;17.08;8.45;;;22.10;99.90;;;;;;5034887;28;20042;-75
2022/06/15 10:25:17;;;;;;;30.33;11.00;;;21.60;99.90;;;;;;5036258;28;20041;-74
2022/06/15 10:27:42;;;;;;;18.05;10.02;;;21.50;99.90;;;;;;5034638;28;20433;-74
2022/06/15 10:30:08;;;;;;;21.77;9.05;;;21.70;99.90;;;;;;5034897;28;20060;-75
2022/06/15 10:32:36;;;;;;;24.40;8.38;;;21.80;99.90;;;;;;5034645;28;20062;-78
2022/06/15 10:35:07;;;;;;;18.38;8.20;;;21.90;99.90;;;;;;5034580;28;20042;-76
2022/06/15 10:37:43;;;;;;;19.42;9.13;;;21.40;99.90;;;;;;5034447;28;20053;-76
2022/06/15 10:40:31;;;;;;;23.65;10.48;;;21.60;99.90;;;;;;5035915;28;20041;-75
2022/06/15 10:43:02;;;;;;;13.23;8.68;;;21.60;99.90;;;;;;5040649;28;20096;-76
2022/06/15 10:45:52;;;;;;;17.67;9.63;;;21.90;99.90;;;;;;5037666;28;20382;-78
2022/06/15 10:48:31;;;;;;;16.20;7.88;;;21.60;99.90;;;;;;5055467;28;20045;-81
2022/06/15 10:51:15;;;;;;;26.05;10.30;;;21.90;99.90;;;;;;5037808;28;20136;-82
2022/06/15 10:54:12;;;;;;;20.92;9.95;;;22.10;99.90;;;;;;5055562;28;20053;-81
2022/06/15 11:02:50;;;;;;;23.20;10.00;;;21.60;99.90;;;;;;5055318;28;20056;-76
2022/06/15 11:05:19;;;;;;;20.35;10.07;;;22.00;99.90;;;;;;5037333;28;20124;-76
2022/06/15 11:07:53;;;;;;;21.60;10.48;;;22.10;99.90;;;;;;5037222;28;20142;-76
2022/06/15 11:10:29;;;;;;;16.15;9.70;;;22.00;99.90;;;;;;5037340;28;20488;-76
2022/06/15 11:13:00;;;;;;;19.50;10.05;;;22.00;99.90;;;;;;5037104;28;20055;-77
2022/06/15 11:18:31;;;;;;;18.83;9.00;;;22.40;99.90;;;;;;5054820;28;20056;-77
2022/06/15 11:21:00;;;;;;;22.65;9.30;;;22.20;99.90;;;;;;5037302;28;20124;-77
2022/06/15 11:23:29;;;;;;;18.45;9.20;;;22.20;99.90;;;;;;5054535;28;20110;-78
2022/06/15 11:29:01;;;;;;;21.58;9.43;;;21.90;99.90;;;;;;5064934;28;20052;-78
2022/06/15 11:31:29;;;;;;;19.92;8.02;;;21.20;99.90;;;;;;5063711;28;20044;-77
2022/06/15 11:33:58;;;;;;;20.50;8.18;;;21.20;99.90;;;;;;5046204;28;20036;-78
2022/06/15 11:36:36;;;;;;;13.43;8.00;;;21.80;99.90;;;;;;5042169;28;20103;-78
2022/06/15 11:39:15;;;;;;;18.23;8.40;;;21.90;99.90;;;;;;5036644;28;20477;-77
2022/06/15 11:41:47;;;;;;;15.77;8.10;;;21.80;99.90;;;;;;5054652;28;20114;-77
2022/06/15 11:44:18;;;;;;;17.33;7.70;;;22.10;99.90;;;;;;5054242;28;20086;-77
2022/06/15 11:47:13;;;;;;;14.63;7.78;;;22.60;99.90;;;;;;5054549;28;20069;-77
2022/06/15 11:49:53;;;;;;;18.20;7.95;;;22.60;99.90;;;;;;5054247;28;20053;-77
2022/06/15 11:52:31;;;;;;;21.08;8.50;;;21.90;99.90;;;;;;5054297;28;20053;-77
2022/06/15 11:55:18;;;;;;;17.40;8.23;;;22.10;99.90;;;;;;5047945;28;20063;-77
2022/06/15 11:57:59;;;;;;;16.20;6.75;;;22.00;99.90;;;;;;5061777;28;20131;-77
2022/06/15 12:00:48;;;;;;;16.27;7.00;;;22.30;99.90;;;;;;5056119;28;20044;-76
2022/06/15 12:03:45;;;;;;;12.00;5.95;;;21.60;99.90;;;;;;5055955;28;20048;-77
2022/06/15 12:06:27;;;;;;;17.95;6.82;;;21.90;99.90;;;;;;5073276;28;20087;-76
2022/06/15 12:09:02;;;;;;;;;;;22.00;99.90;;;;;;5073088;28;20052;-77
2022/06/15 12:14:46;;;;;;;11.55;5.78;;;22.50;99.90;;;;;;5060934;28;20052;-76
2022/06/15 12:17:29;;;;;;;10.80;5.68;;;22.30;99.90;;;;;;5073725;28;20044;-77
2022/06/15 12:20:01;;;;;;;14.40;5.97;;;21.80;99.90;;;;;;5055811;28;20071;-76
2022/06/15 12:22:43;;;;;;;12.57;5.82;;;21.90;99.90;;;;;;5073876;28;20043;-77
2022/06/15 12:25:29;;;;;;;;;;;21.50;99.90;;;;;;5074009;28;20091;-76
2022/06/15 12:28:14;;;;;;;11.73;5.20;;;21.60;99.90;;;;;;5022234;28;19916;-93
2022/06/15 12:30:49;;;;;;;11.55;5.45;;;21.70;99.90;;;;;;5055749;28;20099;-92
2022/06/15 12:33:24;;;;;;;9.57;5.43;;;21.30;99.90;;;;;;5055300;28;20052;-90
2022/06/15 12:36:07;;;;;;;10.23;5.30;;;22.00;99.90;;;;;;5055580;28;20484;-85
2022/06/15 12:38:49;;;;;;;10.07;5.07;;;21.90;99.90;;;;;;5055620;28;20048;-84
2022/06/15 12:44:21;;;;;;;14.55;5.40;;;21.80;99.90;;;;;;5073357;28;20052;-76
2022/06/15 12:46:48;;;;;;;9.55;4.95;;;21.90;99.90;;;;;;5073769;28;20063;-77
2022/06/15 12:49:33;;;;;;;10.52;5.10;;;22.10;99.90;;;;;;5073312;28;20475;-76
2022/06/15 12:52:18;;;;;;;11.02;4.95;;;22.30;99.90;;;;;;5055524;28;20093;-76
2022/06/15 12:55:06;;;;;;;9.52;5.38;;;22.20;99.90;;;;;;5055473;28;20052;-76
2022/06/15 12:57:57;;;;;;;10.68;4.90;;;22.60;99.90;;;;;;5055450;28;20506;-76
2022/06/15 13:00:38;;;;;;;13.30;4.70;;;22.60;99.90;;;;;;5055408;28;20080;-76
2022/06/15 13:03:31;;;;;;;9.73;4.88;;;22.60;99.90;;;;;;5073151;28;20398;-76
2022/06/15 13:06:15;;;;;;;;;;;22.70;99.90;;;;;;5073762;28;20115;-76
2022/06/15 13:08:45;;;;;;;10.32;5.22;;;22.20;99.90;;;;;;5073338;28;20426;-76
2022/06/15 13:11:17;;;;;;;10.63;4.70;;;22.10;99.90;;;;;;5073580;28;20048;-76
2022/06/15 13:13:50;;;;;;;6.80;4.70;;;21.90;99.90;;;;;;5055544;28;20041;-76
2022/06/15 13:16:38;;;;;;;11.25;5.55;;;22.30;99.90;;;;;;5055627;28;20056;-76
2022/06/15 13:19:07;;;;;;;12.20;5.55;;;21.90;99.30;;;;;;5055201;28;20045;-76
2022/06/15 13:21:53;;;;;;;8.90;4.93;;;22.00;99.90;;;;;;5073057;28;20457;-76